createdAt,value
2022-09-07T00:01:05.619Z,10.70
2022-09-07T00:03:33.717Z,9.65
2022-09-07T00:06:07.491Z,11.52
2022-09-07T00:08:35.750Z,8.88
2022-09-07T00:11:05.840Z,10.52
2022-09-07T00:13:38.275Z,13.27
2022-09-07T00:16:07.900Z,9.48
2022-09-07T00:18:36.094Z,9.70
2022-09-07T00:21:06.844Z,12.27
2022-09-07T00:23:37.216Z,9.82
2022-09-07T00:26:08.223Z,10.75
2022-09-07T00:28:38.154Z,12.13
2022-09-07T00:31:11.141Z,8.40
2022-09-07T00:33:39.332Z,11.68
2022-09-07T00:36:07.912Z,9.65
2022-09-07T00:38:36.202Z,9.73
2022-09-07T00:41:04.359Z,9.18
2022-09-07T00:43:34.861Z,11.05
2022-09-07T00:46:06.374Z,9.93
2022-09-07T00:48:39.093Z,9.45
2022-09-07T00:51:11.413Z,11.55
2022-09-07T00:53:43.015Z,9.98
2022-09-07T00:56:12.662Z,11.07
2022-09-07T00:58:44.493Z,13.48
2022-09-07T01:01:14.587Z,10.15
2022-09-07T01:03:48.639Z,12.23
2022-09-07T01:06:19.467Z,14.90
2022-09-07T01:08:50.751Z,13.20
2022-09-07T01:11:21.083Z,12.57
2022-09-07T01:13:50.815Z,10.88
2022-09-07T01:16:50.171Z,12.95
2022-09-07T01:19:46.593Z,11.23
2022-09-07T01:22:35.609Z,11.40
2022-09-07T01:25:10.336Z,10.98
2022-09-07T01:28:04.322Z,12.77
2022-09-07T01:30:37.381Z,10.68
2022-09-07T01:33:32.251Z,13.95
2022-09-07T01:36:11.417Z,12.43
2022-09-07T01:38:45.717Z,12.80
2022-09-07T01:41:21.382Z,18.35
2022-09-07T01:43:58.462Z,14.05
2022-09-07T01:46:29.893Z,12.88
2022-09-07T01:49:03.718Z,12.45
2022-09-07T01:51:35.391Z,14.20
2022-09-07T01:54:10.402Z,12.57
2022-09-07T01:56:42.645Z,14.80
2022-09-07T01:59:20.958Z,12.82
2022-09-07T02:01:55.467Z,13.85
2022-09-07T02:04:30.210Z,11.48
2022-09-07T02:07:05.711Z,16.00
2022-09-07T02:09:37.511Z,14.90
2022-09-07T02:12:12.090Z,13.05
2022-09-07T02:14:49.365Z,15.90
2022-09-07T02:17:25.917Z,14.07
2022-09-07T02:19:59.891Z,13.48
2022-09-07T02:22:32.974Z,13.02
2022-09-07T02:25:04.323Z,13.50
2022-09-07T02:27:41.474Z,14.50
2022-09-07T02:30:12.108Z,11.98
2022-09-07T02:32:40.110Z,12.90
2022-09-07T02:35:09.495Z,13.98
2022-09-07T02:37:39.382Z,13.60
2022-09-07T02:40:08.790Z,17.30
2022-09-07T02:42:37.853Z,16.25
2022-09-07T02:45:09.460Z,14.57
2022-09-07T02:47:55.175Z,14.70
2022-09-07T02:50:49.969Z,13.10
2022-09-07T02:53:36.324Z,19.70
2022-09-07T02:56:15.098Z,14.15
2022-09-07T02:58:51.062Z,17.05
2022-09-07T03:01:31.694Z,16.10
2022-09-07T03:04:11.088Z,14.07
2022-09-07T03:06:41.946Z,16.13
2022-09-07T03:09:14.516Z,15.73
2022-09-07T03:11:42.546Z,16.38
2022-09-07T03:14:16.336Z,15.57
2022-09-07T03:16:44.901Z,14.98
2022-09-07T03:19:14.300Z,18.77
2022-09-07T03:21:42.351Z,16.98
2022-09-07T03:24:11.043Z,15.80
2022-09-07T03:26:42.407Z,15.93
2022-09-07T03:29:10.566Z,14.88
2022-09-07T03:31:38.742Z,15.63
2022-09-07T03:34:07.257Z,15.60
2022-09-07T03:36:37.003Z,15.13
2022-09-07T03:39:05.247Z,13.80
2022-09-07T03:41:33.271Z,14.13
2022-09-07T03:44:04.954Z,13.43
2022-09-07T03:46:33.389Z,14.38
2022-09-07T03:49:01.617Z,14.00
2022-09-07T03:51:29.815Z,13.18
2022-09-07T03:53:59.863Z,11.93
2022-09-07T03:56:27.881Z,19.15
2022-09-07T03:58:56.804Z,14.00
2022-09-07T04:01:27.058Z,12.63
2022-09-07T04:04:02.148Z,11.27
2022-09-07T04:06:31.591Z,14.25
2022-09-07T04:09:04.579Z,13.85
2022-09-07T04:11:32.698Z,22.42
2022-09-07T04:14:01.036Z,13.75
2022-09-07T04:16:29.761Z,15.27
2022-09-07T04:18:59.226Z,13.93
2022-09-07T04:21:29.670Z,14.77
2022-09-07T04:23:57.903Z,16.05
2022-09-07T04:26:29.201Z,16.95
2022-09-07T04:28:57.467Z,18.13
2022-09-07T04:31:26.293Z,18.45
2022-09-07T04:33:55.744Z,16.92
2022-09-07T04:36:25.733Z,17.73
2022-09-07T04:38:59.457Z,15.15
2022-09-07T04:41:31.184Z,15.48
2022-09-07T04:44:01.057Z,14.95
2022-09-07T04:46:30.755Z,20.20
2022-09-07T04:49:00.773Z,17.15
2022-09-07T04:51:31.248Z,18.40
2022-09-07T04:54:00.974Z,17.67
2022-09-07T04:56:31.231Z,19.40
2022-09-07T04:58:59.973Z,19.92
2022-09-07T05:01:28.135Z,20.85
2022-09-07T05:03:56.301Z,20.65
2022-09-07T05:06:25.180Z,21.85
2022-09-07T05:08:54.738Z,21.13
2022-09-07T05:11:28.875Z,19.10
2022-09-07T05:14:00.593Z,21.20
2022-09-07T05:16:29.761Z,21.27
2022-09-07T05:18:59.778Z,21.85
2022-09-07T05:21:29.726Z,23.55
2022-09-07T05:23:59.477Z,19.10
2022-09-07T05:26:29.854Z,17.23
2022-09-07T05:31:50.965Z,19.88
2022-09-07T05:34:34.539Z,22.80
2022-09-07T05:37:03.374Z,21.60
2022-09-07T05:39:31.671Z,21.88
2022-09-07T05:41:59.750Z,24.63
2022-09-07T05:44:46.297Z,24.58
2022-09-07T05:47:14.510Z,23.00
2022-09-07T05:49:42.612Z,24.30
2022-09-07T05:52:10.924Z,26.90
2022-09-07T05:54:39.050Z,23.92
2022-09-07T05:57:08.131Z,25.02
2022-09-07T05:59:37.532Z,27.23
2022-09-07T06:02:06.674Z,25.20
2022-09-07T06:04:34.744Z,27.15
2022-09-07T06:07:21.036Z,28.73
2022-09-07T06:12:37.495Z,27.88
2022-09-07T06:15:08.196Z,25.60
2022-09-07T06:17:36.244Z,23.20
2022-09-07T06:20:05.070Z,22.40
2022-09-07T06:22:35.723Z,22.75
2022-09-07T06:25:03.881Z,25.65
2022-09-07T06:27:31.979Z,29.63
2022-09-07T06:29:59.956Z,27.58
2022-09-07T06:32:45.577Z,25.60
2022-09-07T06:35:14.622Z,24.33
2022-09-07T06:37:42.693Z,24.48
2022-09-07T06:40:11.953Z,26.35
2022-09-07T06:42:40.344Z,25.35
2022-09-07T06:45:11.270Z,26.00
2022-09-07T06:47:41.355Z,26.13
2022-09-07T06:50:10.624Z,25.63
2022-09-07T06:55:28.671Z,22.98
2022-09-07T06:57:56.986Z,26.10
2022-09-07T07:00:25.135Z,25.73
2022-09-07T07:02:54.656Z,23.92
2022-09-07T07:05:22.750Z,22.38
2022-09-07T07:07:50.792Z,22.85
2022-09-07T07:10:23.613Z,26.50
2022-09-07T07:12:53.143Z,23.33
2022-09-07T07:15:21.343Z,19.75
2022-09-07T07:17:58.039Z,23.30
2022-09-07T07:20:29.989Z,18.17
2022-09-07T07:22:58.041Z,18.80
2022-09-07T07:25:26.116Z,19.67
2022-09-07T07:27:54.422Z,14.77
2022-09-07T07:30:23.166Z,17.75
2022-09-07T07:32:51.275Z,18.58
2022-09-07T07:35:19.406Z,21.05
2022-09-07T07:37:49.333Z,15.18
2022-09-07T07:40:19.810Z,16.13
2022-09-07T07:42:51.599Z,17.30
2022-09-07T07:48:07.754Z,12.43
2022-09-07T07:50:35.811Z,14.02
2022-09-07T07:55:53.457Z,22.70
2022-09-07T07:58:22.044Z,14.43
2022-09-07T08:00:54.790Z,12.88
2022-09-07T08:03:25.341Z,14.80
2022-09-07T08:05:53.787Z,13.75
2022-09-07T08:08:24.634Z,17.52
2022-09-07T08:10:52.958Z,13.88
2022-09-07T08:13:21.458Z,14.85
2022-09-07T08:15:49.759Z,13.73
2022-09-07T08:18:18.487Z,12.18
2022-09-07T08:20:46.510Z,13.63
2022-09-07T08:23:15.262Z,12.50
2022-09-07T08:25:52.613Z,13.43
2022-09-07T08:28:20.894Z,14.93
2022-09-07T08:30:49.081Z,12.52
2022-09-07T08:33:17.504Z,16.88
2022-09-07T08:35:55.428Z,12.80
2022-09-07T08:38:23.503Z,13.30
2022-09-07T08:40:53.116Z,17.38
2022-09-07T08:43:32.161Z,11.35
2022-09-07T08:46:06.704Z,13.02
2022-09-07T08:48:36.205Z,13.65
2022-09-07T08:51:10.916Z,11.07
2022-09-07T08:53:47.382Z,12.40
2022-09-07T08:56:21.875Z,12.20
2022-09-07T08:58:53.182Z,14.13
2022-09-07T09:01:38.854Z,12.73
2022-09-07T09:04:16.538Z,11.73
2022-09-07T09:06:58.406Z,12.77
2022-09-07T09:09:35.163Z,12.93
2022-09-07T09:12:16.066Z,14.40
2022-09-07T09:14:56.563Z,10.57
2022-09-07T09:17:30.527Z,12.63
2022-09-07T09:20:11.105Z,8.57
2022-09-07T09:22:39.547Z,10.27
2022-09-07T09:25:18.055Z,10.45
2022-09-07T09:27:47.754Z,13.18
2022-09-07T09:30:17.977Z,11.43
2022-09-07T09:32:47.483Z,9.77
2022-09-07T09:35:24.456Z,10.55
2022-09-07T09:37:52.531Z,8.70
2022-09-07T09:40:24.816Z,9.27
2022-09-07T09:43:02.658Z,8.77
2022-09-07T09:46:12.107Z,9.55
2022-09-07T09:48:32.342Z,10.13
2022-09-07T09:53:58.141Z,8.35
2022-09-07T09:56:43.301Z,10.02
2022-09-07T10:05:28.094Z,9.52
2022-09-07T10:07:56.522Z,8.60
2022-09-07T10:10:24.823Z,8.35
2022-09-07T10:12:55.111Z,7.93
2022-09-07T10:15:41.341Z,9.55
2022-09-07T10:18:21.203Z,12.80
2022-09-07T10:20:49.800Z,8.05
2022-09-07T10:23:23.607Z,9.85
2022-09-07T10:25:51.877Z,8.88
2022-09-07T10:28:21.373Z,11.27
2022-09-07T10:31:15.233Z,9.32
2022-09-07T10:36:48.032Z,8.80
2022-09-07T10:39:21.473Z,8.18
2022-09-07T10:41:57.478Z,8.38
2022-09-07T10:44:42.733Z,8.38
2022-09-07T10:47:24.826Z,10.70
2022-09-07T10:52:54.730Z,9.85
2022-09-07T10:55:29.816Z,8.00
2022-09-07T10:58:13.211Z,6.75
2022-09-07T11:00:50.678Z,6.35
2022-09-07T11:03:32.686Z,7.15
2022-09-07T11:06:17.378Z,8.20
2022-09-07T11:09:16.532Z,8.90
2022-09-07T11:12:04.284Z,8.93
2022-09-07T11:14:36.984Z,6.65
2022-09-07T11:17:12.815Z,5.05
2022-09-07T11:19:48.249Z,6.18
2022-09-07T11:22:23.675Z,7.53
2022-09-07T11:27:49.412Z,6.32
2022-09-07T11:30:21.689Z,7.47
2022-09-07T11:32:56.844Z,7.28
2022-09-07T11:35:33.216Z,7.30
2022-09-07T11:38:07.136Z,7.22
2022-09-07T11:40:40.488Z,7.28
2022-09-07T11:43:17.335Z,9.25
2022-09-07T11:45:49.670Z,7.20
2022-09-07T11:48:22.406Z,6.35
2022-09-07T11:50:54.808Z,4.90
2022-09-07T11:53:27.953Z,5.57
2022-09-07T11:56:00.700Z,11.05
2022-09-07T12:01:26.227Z,5.07
2022-09-07T12:04:16.415Z,4.88
2022-09-07T12:07:10.136Z,5.45
2022-09-07T12:09:54.834Z,4.78
2022-09-07T12:12:39.022Z,7.15
2022-09-07T12:15:22.332Z,4.70
2022-09-07T12:18:03.201Z,6.05
2022-09-07T12:20:41.022Z,5.13
2022-09-07T12:23:27.388Z,5.22
2022-09-07T12:26:34.108Z,4.30
2022-09-07T12:29:18.595Z,3.67
2022-09-07T12:35:00.506Z,3.65
2022-09-07T12:37:40.247Z,3.72
2022-09-07T12:40:45.218Z,3.70
2022-09-07T12:43:36.181Z,6.25
2022-09-07T12:46:04.614Z,3.80
2022-09-07T12:48:46.674Z,4.80
2022-09-07T12:54:24.171Z,3.25
2022-09-07T13:00:02.687Z,2.83
2022-09-07T13:03:00.895Z,5.88
2022-09-07T13:05:46.431Z,2.70
2022-09-07T13:08:43.967Z,3.80
2022-09-07T13:11:31.553Z,2.80
2022-09-07T13:14:04.788Z,2.70
2022-09-07T13:20:03.223Z,2.67
2022-09-07T13:23:09.145Z,3.85
2022-09-07T13:25:49.433Z,3.85
2022-09-07T13:28:26.314Z,2.38
2022-09-07T13:31:06.135Z,2.75
2022-09-07T13:33:47.399Z,2.83
2022-09-07T13:36:21.918Z,3.95
2022-09-07T13:38:51.502Z,4.78
2022-09-07T13:41:23.628Z,3.50
2022-09-07T13:43:58.301Z,2.85
2022-09-07T13:46:47.701Z,2.85
2022-09-07T13:49:29.921Z,2.38
2022-09-07T13:52:06.386Z,2.58
2022-09-07T13:54:52.326Z,2.70
2022-09-07T13:57:27.393Z,2.90
2022-09-07T13:59:56.475Z,4.72
2022-09-07T14:02:28.989Z,3.72
2022-09-07T14:05:01.439Z,5.80
2022-09-07T14:07:30.688Z,3.60
2022-09-07T14:10:07.747Z,2.47
2022-09-07T14:12:43.517Z,2.53
2022-09-07T14:15:20.038Z,2.15
2022-09-07T14:17:49.275Z,2.33
2022-09-07T14:20:19.094Z,2.80
2022-09-07T14:22:50.738Z,2.97
2022-09-07T14:25:22.835Z,4.63
2022-09-07T14:27:51.131Z,3.30
2022-09-07T14:30:25.912Z,3.55
2022-09-07T14:32:55.789Z,2.55
2022-09-07T14:35:28.299Z,3.60
2022-09-07T14:38:03.395Z,3.53
2022-09-07T14:40:31.854Z,2.65
2022-09-07T14:42:59.838Z,4.88
2022-09-07T14:45:34.173Z,3.10
2022-09-07T14:48:13.255Z,4.57
2022-09-07T14:50:57.231Z,4.57
2022-09-07T14:53:37.177Z,9.93
2022-09-07T14:56:10.850Z,3.15
2022-09-07T14:58:38.875Z,127.82
2022-09-07T15:04:18.778Z,130.70
2022-09-07T15:07:03.789Z,278.25
2022-09-07T15:09:37.755Z,232.80
2022-09-07T15:12:18.297Z,20.55
2022-09-07T15:14:47.595Z,136.77
2022-09-07T15:20:41.174Z,25.80
2022-09-07T15:23:15.815Z,59.92
2022-09-07T15:25:50.272Z,21.48
2022-09-07T15:34:02.962Z,6.72
2022-09-07T15:36:32.076Z,9.70
2022-09-07T15:39:03.114Z,6.10
2022-09-07T15:41:31.916Z,3.75
2022-09-07T15:44:00.023Z,3.05
2022-09-07T15:46:28.395Z,3.90
2022-09-07T15:48:57.102Z,3.97
2022-09-07T15:54:16.596Z,4.57
2022-09-07T15:57:48.366Z,2.60
2022-09-07T15:59:32.818Z,4.53
2022-09-07T16:02:01.029Z,6.70
2022-09-07T16:04:30.087Z,4.35
2022-09-07T16:07:01.296Z,5.28
2022-09-07T16:09:30.927Z,2.60
2022-09-07T16:13:00.143Z,4.22
2022-09-07T16:14:47.064Z,3.38
2022-09-07T16:20:03.715Z,3.90
2022-09-07T16:25:21.176Z,5.93
2022-09-07T16:27:49.969Z,3.78
2022-09-07T16:30:18.055Z,6.93
2022-09-07T16:32:46.223Z,8.98
2022-09-07T16:35:14.304Z,14.82
2022-09-07T16:38:43.687Z,5.82
2022-09-07T16:40:31.714Z,4.28
2022-09-07T16:42:59.641Z,3.60
2022-09-07T16:48:15.706Z,5.15
2022-09-07T16:51:00.269Z,3.92
2022-09-07T16:53:30.500Z,5.70
2022-09-07T16:56:03.144Z,4.57
2022-09-07T16:58:35.779Z,4.15
2022-09-07T17:01:04.634Z,5.20
2022-09-07T17:03:32.815Z,5.05
2022-09-07T17:06:01.362Z,3.95
2022-09-07T17:08:29.804Z,5.00
2022-09-07T17:11:00.694Z,4.53
2022-09-07T17:13:31.698Z,4.38
2022-09-07T17:16:03.226Z,4.03
2022-09-07T17:21:20.538Z,4.72
2022-09-07T17:23:54.762Z,6.25
2022-09-07T17:26:27.038Z,4.32
2022-09-07T17:29:00.330Z,4.85
2022-09-07T17:34:19.471Z,4.45
2022-09-07T17:36:47.633Z,5.15
2022-09-07T17:39:18.013Z,4.22
2022-09-07T17:41:47.652Z,5.50
2022-09-07T17:44:17.799Z,3.53
2022-09-07T17:46:45.827Z,5.20
2022-09-07T17:49:16.388Z,5.93
2022-09-07T17:51:45.860Z,8.88
2022-09-07T17:54:17.370Z,6.05
2022-09-07T17:56:46.666Z,4.78
2022-09-07T18:02:04.345Z,6.53
2022-09-07T18:04:32.342Z,6.50
2022-09-07T18:07:00.313Z,6.70
2022-09-07T18:09:28.313Z,5.63
2022-09-07T18:11:56.265Z,5.85
2022-09-07T18:14:24.228Z,6.90
2022-09-07T18:16:52.301Z,8.77
2022-09-07T18:19:21.667Z,6.35
2022-09-07T18:21:50.631Z,8.20
2022-09-07T18:24:22.302Z,7.18
2022-09-07T18:26:52.662Z,5.70
2022-09-07T18:29:32.977Z,4.70
2022-09-07T18:32:04.581Z,6.75
2022-09-07T18:34:35.261Z,6.45
2022-09-07T18:37:03.476Z,5.70
2022-09-07T18:39:32.267Z,5.13
2022-09-07T18:42:00.315Z,5.20
2022-09-07T18:47:23.401Z,5.70
2022-09-07T18:49:57.461Z,8.00
2022-09-07T18:55:14.414Z,5.93
2022-09-07T18:57:42.362Z,7.40
2022-09-07T19:00:12.384Z,9.27
2022-09-07T19:02:40.439Z,9.55
2022-09-07T19:07:59.496Z,5.78
2022-09-07T19:10:27.660Z,5.43
2022-09-07T19:12:56.649Z,6.38
2022-09-07T19:15:24.623Z,6.50
2022-09-07T19:17:52.680Z,6.50
2022-09-07T19:20:22.007Z,4.05
2022-09-07T19:22:49.981Z,5.28
2022-09-07T19:25:19.268Z,5.47
2022-09-07T19:27:48.329Z,10.40
2022-09-07T19:30:17.356Z,5.65
2022-09-07T19:32:45.365Z,8.27
2022-09-07T19:35:13.344Z,4.93
2022-09-07T19:37:42.598Z,7.80
2022-09-07T19:40:14.665Z,7.35
2022-09-07T19:42:46.485Z,6.80
2022-09-07T19:45:15.462Z,6.80
2022-09-07T19:47:43.546Z,4.20
2022-09-07T19:50:11.467Z,6.03
2022-09-07T19:52:39.479Z,4.40
2022-09-07T19:55:10.053Z,4.65
2022-09-07T19:57:38.155Z,4.70
2022-09-07T20:00:07.334Z,4.80
2022-09-07T20:02:39.801Z,5.85
2022-09-07T20:05:08.303Z,4.88
2022-09-07T20:07:36.256Z,5.82
2022-09-07T20:10:04.514Z,5.43
2022-09-07T20:12:33.863Z,6.72
2022-09-07T20:15:01.783Z,5.32
2022-09-07T20:17:35.200Z,6.07
2022-09-07T20:20:04.023Z,8.60
2022-09-07T20:22:32.244Z,6.47
2022-09-07T20:25:00.122Z,5.43
2022-09-07T20:27:28.095Z,4.93
2022-09-07T20:29:57.402Z,6.30
2022-09-07T20:32:27.824Z,6.63
2022-09-07T20:34:56.008Z,7.65
2022-09-07T20:37:26.731Z,6.10
2022-09-07T20:39:55.075Z,5.97
2022-09-07T20:42:23.069Z,6.95
2022-09-07T20:44:51.097Z,8.32
2022-09-07T20:47:20.400Z,7.55
2022-09-07T20:49:48.446Z,6.88
2022-09-07T20:52:16.376Z,7.97
2022-09-07T20:54:44.520Z,7.25
2022-09-07T20:57:12.517Z,6.65
2022-09-07T20:59:40.518Z,8.73
2022-09-07T21:02:10.328Z,8.00
2022-09-07T21:04:39.670Z,6.85
2022-09-07T21:07:07.786Z,7.25
2022-09-07T21:09:35.738Z,8.80
2022-09-07T21:12:04.251Z,10.65
2022-09-07T21:14:32.232Z,6.70
2022-09-07T21:17:00.160Z,10.10
2022-09-07T21:19:28.114Z,8.10
2022-09-07T21:21:57.444Z,8.57
2022-09-07T21:24:25.755Z,8.20
2022-09-07T21:26:53.717Z,7.68
2022-09-07T21:29:23.994Z,8.63
2022-09-07T21:31:53.942Z,7.72
2022-09-07T21:34:22.957Z,8.25
2022-09-07T21:36:51.369Z,7.30
2022-09-07T21:39:20.840Z,10.23
2022-09-07T21:41:48.730Z,6.68
2022-09-07T21:44:17.232Z,7.97
2022-09-07T21:46:45.466Z,7.70
2022-09-07T21:49:13.520Z,7.63
2022-09-07T21:51:41.402Z,8.15
2022-09-07T21:54:09.735Z,9.23
2022-09-07T21:56:43.113Z,9.82
2022-09-07T21:59:13.791Z,18.23
2022-09-07T22:01:41.846Z,9.20
2022-09-07T22:04:09.956Z,10.02
2022-09-07T22:06:39.849Z,7.10
2022-09-07T22:09:08.246Z,8.13
2022-09-07T22:11:36.133Z,9.50
2022-09-07T22:14:06.830Z,9.18
2022-09-07T22:16:35.853Z,8.13
2022-09-07T22:19:03.967Z,9.05
2022-09-07T22:21:32.227Z,8.32
2022-09-07T22:24:01.563Z,8.60
2022-09-07T22:26:31.074Z,7.68
2022-09-07T22:28:59.551Z,7.65
2022-09-07T22:31:30.325Z,8.38
2022-09-07T22:33:59.153Z,8.32
2022-09-07T22:36:28.942Z,8.23
2022-09-07T22:38:59.470Z,7.28
2022-09-07T22:41:29.195Z,6.80
2022-09-07T22:43:57.521Z,7.72
2022-09-07T22:46:28.813Z,6.18
2022-09-07T22:48:58.197Z,5.90
2022-09-07T22:51:26.918Z,9.48
2022-09-07T22:53:55.835Z,7.00
2022-09-07T22:56:26.294Z,7.60
2022-09-07T22:58:55.906Z,6.88
2022-09-07T23:01:24.657Z,8.23
2022-09-07T23:03:54.558Z,7.47
2022-09-07T23:06:24.123Z,5.78
2022-09-07T23:08:53.092Z,7.18
2022-09-07T23:11:22.104Z,10.02
2022-09-07T23:13:51.502Z,9.10
2022-09-07T23:16:19.723Z,7.68
2022-09-07T23:18:48.240Z,6.40
2022-09-07T23:21:17.837Z,8.00
2022-09-07T23:23:51.158Z,6.25
2022-09-07T23:26:19.348Z,7.30
2022-09-07T23:28:47.473Z,6.45
2022-09-07T23:31:15.462Z,6.22
2022-09-07T23:33:43.496Z,7.78
2022-09-07T23:36:11.733Z,7.32
2022-09-07T23:38:40.976Z,7.90
2022-09-07T23:41:08.902Z,6.80
2022-09-07T23:43:37.164Z,6.75
2022-09-07T23:46:05.133Z,11.38
2022-09-07T23:48:33.175Z,9.88
2022-09-07T23:51:01.092Z,9.07
2022-09-07T23:53:29.065Z,7.72
2022-09-07T23:55:58.616Z,7.70
2022-09-07T23:58:26.533Z,8.63
